Time;durP1;ratioP1;P1;durP2;ratioP2;P2;SDS_P1;SDS_P2;PMS_P1;PMS_P2;Temp;Humidity;BMP_temperature;BMP_pressure;BME280_temperature;BME280_humidity;BME280_pressure;Samples;Min_cycle;Max_cycle;Signal;HPM_P1;HPM_P2
2021/04/24 00:00:19;;;;;;;13.32;6.37;;;7.70;64.50;;;;;;1772141;81;21146;-76
2021/04/24 00:02:49;;;;;;;14.33;6.60;;;7.70;64.50;;;;;;1772182;81;21577;-76
2021/04/24 00:05:22;;;;;;;11.70;6.25;;;7.70;64.30;;;;;;1772327;81;21192;-76
2021/04/24 00:07:58;;;;;;;12.95;6.90;;;7.70;64.70;;;;;;1772112;81;21166;-75
2021/04/24 00:10:27;;;;;;;13.23;6.50;;;7.80;64.20;;;;;;1772051;81;21150;-76
2021/04/24 00:12:55;;;;;;;11.33;6.08;;;7.80;64.30;;;;;;1772137;81;21288;-75
2021/04/24 00:15:23;;;;;;;12.68;6.35;;;7.70;64.60;;;;;;1772223;81;21169;-76
2021/04/24 00:17:51;;;;;;;13.55;6.05;;;7.60;65.00;;;;;;1772688;81;21150;-75
2021/04/24 00:20:22;;;;;;;12.88;6.00;;;7.70;66.50;;;;;;1772192;81;21165;-75
2021/04/24 00:22:53;;;;;;;12.43;5.80;;;7.80;65.20;;;;;;1772321;81;21165;-75
2021/04/24 00:25:20;;;;;;;12.35;6.15;;;7.70;64.60;;;;;;1772122;81;21312;-76
2021/04/24 00:27:48;;;;;;;10.85;6.20;;;7.70;64.30;;;;;;1772315;81;21154;-74
2021/04/24 00:30:18;;;;;;;14.33;6.03;;;7.70;64.80;;;;;;1772057;81;21296;-75
2021/04/24 00:32:47;;;;;;;13.45;6.12;;;7.60;65.50;;;;;;1772395;81;21161;-75
2021/04/24 00:35:19;;;;;;;12.40;5.25;;;7.60;64.90;;;;;;1772096;81;21283;-75
2021/04/24 00:37:49;;;;;;;11.25;6.00;;;7.70;65.00;;;;;;1772330;81;21135;-76
2021/04/24 00:40:19;;;;;;;12.78;5.72;;;7.70;64.80;;;;;;1772080;81;21300;-76
2021/04/24 00:42:49;;;;;;;11.05;5.42;;;7.70;65.80;;;;;;1772616;81;21158;-76
2021/04/24 00:45:24;;;;;;;12.15;4.92;;;7.70;65.20;;;;;;1772281;81;21154;-76
2021/04/24 00:47:55;;;;;;;12.90;5.60;;;7.60;65.30;;;;;;1772192;81;21655;-78
2021/04/24 00:50:33;;;;;;;10.63;5.47;;;7.70;65.90;;;;;;1772554;81;21118;-77
2021/04/24 00:53:02;;;;;;;12.85;5.67;;;7.80;65.20;;;;;;1772120;81;21293;-77
2021/04/24 00:55:31;;;;;;;11.38;5.53;;;7.70;64.90;;;;;;1772394;81;21628;-75
2021/04/24 00:58:02;;;;;;;9.78;4.92;;;7.60;64.30;;;;;;1772249;81;21177;-76
2021/04/24 01:00:31;;;;;;;12.65;5.42;;;7.60;64.90;;;;;;1772300;81;21150;-76
2021/04/24 01:02:59;;;;;;;12.65;6.10;;;7.70;64.70;;;;;;1772650;81;21537;-77
2021/04/24 01:05:37;;;;;;;9.70;4.90;;;7.70;64.40;;;;;;1772177;81;21163;-76
2021/04/24 01:08:08;;;;;;;15.15;5.50;;;7.50;64.50;;;;;;1772316;81;21548;-76
2021/04/24 01:10:43;;;;;;;11.35;5.17;;;7.50;65.20;;;;;;1772059;81;21731;-76
2021/04/24 01:13:16;;;;;;;10.53;5.25;;;7.40;64.90;;;;;;1772319;81;21288;-76
2021/04/24 01:15:47;;;;;;;14.53;5.47;;;7.50;65.10;;;;;;1772027;81;21303;-76
2021/04/24 01:18:15;;;;;;;13.30;5.33;;;7.40;65.20;;;;;;1772212;81;21126;-76
2021/04/24 01:20:45;;;;;;;11.00;5.37;;;7.30;65.50;;;;;;1772188;81;21145;-76
2021/04/24 01:23:14;;;;;;;12.33;5.15;;;7.30;66.20;;;;;;1772054;81;21270;-76
2021/04/24 01:25:44;;;;;;;11.25;5.00;;;7.40;65.20;;;;;;1772268;81;21141;-76
2021/04/24 01:28:13;;;;;;;11.65;5.25;;;7.40;65.10;;;;;;1772208;81;21552;-76
2021/04/24 01:30:44;;;;;;;10.72;5.10;;;7.40;65.20;;;;;;1772069;81;21311;-76
2021/04/24 01:33:14;;;;;;;13.93;5.58;;;7.40;66.20;;;;;;1772180;81;21145;-77
2021/04/24 01:35:45;;;;;;;13.90;5.72;;;7.40;65.90;;;;;;1772275;81;21154;-76
2021/04/24 01:38:13;;;;;;;13.35;5.40;;;7.30;66.20;;;;;;1772459;81;21514;-76
2021/04/24 01:40:41;;;;;;;10.23;4.65;;;7.20;65.90;;;;;;1772337;81;21142;-76
2021/04/24 01:43:10;;;;;;;10.85;5.40;;;7.20;66.10;;;;;;1772261;81;21174;-76
2021/04/24 01:45:38;;;;;;;10.03;5.08;;;7.30;66.20;;;;;;1772066;81;21292;-76
2021/04/24 01:48:07;;;;;;;12.90;4.35;;;7.30;65.70;;;;;;1772079;81;21292;-76
2021/04/24 01:50:44;;;;;;;10.82;5.15;;;7.30;65.70;;;;;;1772493;81;21166;-76
2021/04/24 01:53:20;;;;;;;11.78;5.15;;;7.30;65.80;;;;;;1772437;81;21130;-76
2021/04/24 01:55:50;;;;;;;11.28;4.92;;;7.20;65.50;;;;;;1772246;81;21268;-76
2021/04/24 01:58:21;;;;;;;10.15;5.03;;;7.10;65.70;;;;;;1772347;81;21145;-76
2021/04/24 02:00:56;;;;;;;11.35;4.80;;;7.00;65.60;;;;;;1772555;81;21122;-76
2021/04/24 02:03:24;;;;;;;8.50;4.42;;;7.00;66.00;;;;;;1745063;81;21099;-76
2021/04/24 02:05:53;;;;;;;11.15;5.10;;;7.00;66.60;;;;;;1772417;81;21545;-76
2021/04/24 02:08:25;;;;;;;10.00;4.75;;;7.00;67.30;;;;;;1772843;81;21130;-76
2021/04/24 02:10:55;;;;;;;9.18;4.65;;;7.00;66.90;;;;;;1772652;81;21185;-76
2021/04/24 02:13:30;;;;;;;8.58;4.60;;;7.00;66.50;;;;;;1772464;81;21153;-76
2021/04/24 02:15:58;;;;;;;9.45;4.58;;;7.00;67.00;;;;;;1772579;81;21159;-76
2021/04/24 02:18:27;;;;;;;10.85;4.70;;;7.00;67.40;;;;;;1772212;81;21162;-76
2021/04/24 02:20:56;;;;;;;8.83;4.00;;;6.90;68.00;;;;;;1772286;81;21600;-75
2021/04/24 02:23:23;;;;;;;7.72;4.37;;;6.90;67.40;;;;;;1772361;81;21162;-74
2021/04/24 02:25:52;;;;;;;11.60;4.70;;;6.90;67.20;;;;;;1772208;81;21145;-75
2021/04/24 02:28:20;;;;;;;10.43;4.53;;;7.00;66.90;;;;;;1772313;81;21162;-75
2021/04/24 02:30:47;;;;;;;9.73;4.60;;;7.10;66.60;;;;;;1772244;81;21205;-76
2021/04/24 02:33:15;;;;;;;9.13;4.45;;;7.00;65.90;;;;;;1772301;81;21588;-75
2021/04/24 02:35:54;;;;;;;9.60;3.87;;;7.00;66.90;;;;;;1772395;81;21578;-76
2021/04/24 02:38:30;;;;;;;8.65;4.20;;;7.10;66.10;;;;;;1772209;81;21129;-76
2021/04/24 02:41:03;;;;;;;12.20;4.22;;;7.10;66.30;;;;;;1772404;81;21545;-77
2021/04/24 02:43:32;;;;;;;11.00;4.05;;;7.10;66.70;;;;;;1772322;81;21107;-76
2021/04/24 02:46:00;;;;;;;8.28;3.67;;;7.00;67.90;;;;;;1772339;81;21134;-76
2021/04/24 02:48:27;;;;;;;7.78;3.80;;;7.00;66.40;;;;;;1772772;81;21169;-76
2021/04/24 02:50:55;;;;;;;8.95;3.35;;;6.90;65.40;;;;;;1772159;81;21161;-76
2021/04/24 02:53:22;;;;;;;7.53;4.00;;;7.00;66.00;;;;;;1772659;81;21107;-76
2021/04/24 02:55:50;;;;;;;9.75;4.25;;;6.90;66.10;;;;;;1772304;81;21149;-76
2021/04/24 02:58:18;;;;;;;9.80;3.50;;;6.90;66.60;;;;;;1772478;81;21198;-76
2021/04/24 03:00:47;;;;;;;10.72;3.90;;;6.90;66.60;;;;;;1772184;81;21157;-76
2021/04/24 03:03:15;;;;;;;9.80;4.05;;;7.00;66.40;;;;;;1772143;81;21158;-76
2021/04/24 03:05:44;;;;;;;8.53;3.98;;;6.90;68.90;;;;;;1772167;81;21165;-77
2021/04/24 03:08:12;;;;;;;7.85;3.85;;;6.90;67.90;;;;;;1772760;81;21150;-77
2021/04/24 03:10:41;;;;;;;9.40;3.87;;;6.90;68.20;;;;;;1772209;81;21604;-76
2021/04/24 03:13:11;;;;;;;9.28;4.42;;;7.10;66.70;;;;;;1772183;81;21138;-76
2021/04/24 03:15:41;;;;;;;10.55;4.10;;;7.00;68.80;;;;;;1771337;80;21169;-76
2021/04/24 03:18:09;;;;;;;9.38;3.92;;;6.90;68.90;;;;;;1769177;81;21311;-76
2021/04/24 03:20:37;;;;;;;11.85;4.28;;;6.90;70.10;;;;;;1769225;81;21592;-77
2021/04/24 03:23:06;;;;;;;9.48;4.17;;;6.80;69.20;;;;;;1769364;81;21151;-77
2021/04/24 03:25:34;;;;;;;10.13;4.35;;;6.70;70.00;;;;;;1769178;80;21545;-77
2021/04/24 03:28:02;;;;;;;9.35;3.40;;;6.70;69.30;;;;;;1769439;81;21162;-77
2021/04/24 03:30:29;;;;;;;8.73;3.72;;;6.60;70.40;;;;;;1769156;81;21291;-77
2021/04/24 03:32:57;;;;;;;9.73;3.90;;;6.60;69.80;;;;;;1769282;81;21296;-77
2021/04/24 03:35:25;;;;;;;8.75;3.70;;;6.60;70.30;;;;;;1769636;80;21150;-78
2021/04/24 03:37:53;;;;;;;8.63;3.77;;;6.50;70.10;;;;;;1769362;81;21142;-78
2021/04/24 03:40:21;;;;;;;7.45;3.75;;;6.50;69.90;;;;;;1769334;81;21154;-78
2021/04/24 03:42:50;;;;;;;7.50;3.75;;;6.50;69.00;;;;;;1768694;81;21182;-78
2021/04/24 03:45:19;;;;;;;10.95;3.85;;;6.40;68.90;;;;;;1769447;81;21161;-78
2021/04/24 03:47:51;;;;;;;11.28;4.62;;;6.40;69.00;;;;;;1769361;81;21162;-78
2021/04/24 03:50:21;;;;;;;10.32;4.90;;;6.40;68.70;;;;;;1769633;80;21118;-78
2021/04/24 03:52:49;;;;;;;9.55;4.83;;;6.40;69.40;;;;;;1769225;81;21696;-78
2021/04/24 03:55:19;;;;;;;13.98;4.72;;;6.40;69.20;;;;;;1769246;80;21284;-77
2021/04/24 03:57:48;;;;;;;10.58;4.65;;;6.30;69.40;;;;;;1769260;81;21284;-77
2021/04/24 04:00:18;;;;;;;10.00;4.50;;;6.30;69.70;;;;;;1769323;81;21147;-77
2021/04/24 04:02:56;;;;;;;9.50;4.37;;;6.30;69.70;;;;;;1769170;81;21277;-77
2021/04/24 04:05:29;;;;;;;10.63;4.85;;;6.30;69.70;;;;;;1769323;80;21162;-77
2021/04/24 04:08:02;;;;;;;9.23;4.20;;;6.30;69.40;;;;;;1769161;81;21565;-77
2021/04/24 04:10:30;;;;;;;10.98;4.67;;;6.30;69.70;;;;;;1769331;81;21178;-77
2021/04/24 04:12:59;;;;;;;11.68;4.20;;;6.20;69.60;;;;;;1769144;81;21297;-77
2021/04/24 04:15:28;;;;;;;11.22;4.97;;;6.30;69.60;;;;;;1769201;80;21186;-78
2021/04/24 04:18:19;;;;;;;10.48;4.17;;;6.30;69.40;;;;;;1769140;81;21280;-77
2021/04/24 04:20:51;;;;;;;8.43;4.00;;;6.30;69.80;;;;;;1769251;80;21128;-78
2021/04/24 04:23:27;;;;;;;9.83;5.03;;;6.50;69.40;;;;;;1769326;80;21155;-78
2021/04/24 04:25:56;;;;;;;10.03;4.58;;;6.40;68.80;;;;;;1769695;81;21162;-77
2021/04/24 04:28:25;;;;;;;9.50;4.50;;;6.40;69.50;;;;;;1769602;81;21162;-78
2021/04/24 04:30:55;;;;;;;10.28;4.60;;;6.40;69.70;;;;;;1769560;80;21166;-77
2021/04/24 04:33:23;;;;;;;9.58;4.22;;;6.40;69.70;;;;;;1769255;81;21194;-77
2021/04/24 04:35:52;;;;;;;12.35;5.10;;;6.50;69.60;;;;;;1769280;81;21165;-77
2021/04/24 04:38:20;;;;;;;9.93;4.80;;;6.50;69.50;;;;;;1769538;80;21158;-77
2021/04/24 04:40:48;;;;;;;10.35;4.55;;;6.60;69.10;;;;;;1769719;81;21137;-77
2021/04/24 04:43:16;;;;;;;8.60;4.50;;;6.70;69.00;;;;;;1769802;81;21154;-76
2021/04/24 04:45:43;;;;;;;11.12;4.60;;;6.70;68.40;;;;;;1769731;80;21142;-76
2021/04/24 04:48:11;;;;;;;10.50;4.72;;;6.70;68.50;;;;;;1769109;81;21154;-78
2021/04/24 04:50:40;;;;;;;10.45;4.45;;;6.80;68.30;;;;;;1769089;81;21153;-75
2021/04/24 04:53:08;;;;;;;12.37;4.60;;;6.80;67.80;;;;;;1769128;80;21305;-75
2021/04/24 04:55:37;;;;;;;7.62;4.10;;;6.70;67.60;;;;;;1769576;81;21154;-76
2021/04/24 04:58:05;;;;;;;11.08;4.42;;;6.70;67.90;;;;;;1769175;81;21746;-76
2021/04/24 05:00:34;;;;;;;10.60;4.33;;;6.60;68.00;;;;;;1769114;81;21292;-76
2021/04/24 05:03:01;;;;;;;8.38;3.95;;;6.80;68.60;;;;;;1769101;80;21276;-76
2021/04/24 05:05:29;;;;;;;9.68;4.15;;;6.90;67.40;;;;;;1769099;80;21280;-76
2021/04/24 05:07:57;;;;;;;13.18;4.40;;;7.00;67.20;;;;;;1769071;81;21150;-76
2021/04/24 05:10:26;;;;;;;9.65;4.15;;;7.10;67.00;;;;;;1769527;81;21167;-77
2021/04/24 05:12:55;;;;;;;9.95;4.10;;;7.10;66.60;;;;;;1769502;81;21150;-77
2021/04/24 05:15:23;;;;;;;10.45;4.40;;;7.10;65.90;;;;;;1769053;81;21276;-76
2021/04/24 05:17:51;;;;;;;8.68;4.00;;;7.20;66.50;;;;;;1769117;81;21323;-76
2021/04/24 05:20:19;;;;;;;13.30;4.75;;;7.20;66.50;;;;;;1769246;81;21146;-77
2021/04/24 05:22:48;;;;;;;7.55;4.70;;;7.30;67.00;;;;;;1769061;81;21365;-76
2021/04/24 05:25:17;;;;;;;13.38;6.35;;;7.30;67.30;;;;;;1769080;81;21728;-76
2021/04/24 05:27:47;;;;;;;8.98;4.90;;;7.30;67.30;;;;;;1769243;81;21154;-75
2021/04/24 05:30:17;;;;;;;8.50;4.85;;;7.40;67.10;;;;;;1769316;80;21142;-76
2021/04/24 05:32:46;;;;;;;12.13;4.72;;;7.60;66.40;;;;;;1769211;81;21154;-77
2021/04/24 05:35:15;;;;;;;8.75;4.28;;;7.70;65.80;;;;;;1769326;81;21595;-77
2021/04/24 05:37:44;;;;;;;9.15;4.42;;;7.80;65.90;;;;;;1769446;81;21145;-77
2021/04/24 05:40:13;;;;;;;11.20;4.53;;;7.90;65.00;;;;;;1769843;81;21149;-77
2021/04/24 05:42:41;;;;;;;11.15;4.53;;;8.00;64.70;;;;;;1769275;80;21308;-76
2021/04/24 05:45:11;;;;;;;8.18;4.33;;;8.00;64.50;;;;;;1769235;81;21141;-77
2021/04/24 05:47:46;;;;;;;9.85;4.45;;;8.10;63.50;;;;;;1769330;81;21585;-77
2021/04/24 05:50:18;;;;;;;11.57;4.17;;;8.30;62.80;;;;;;1769496;80;21162;-76
2021/04/24 05:52:48;;;;;;;10.28;4.83;;;8.20;62.60;;;;;;1769533;80;21106;-76
2021/04/24 05:55:16;;;;;;;10.70;4.65;;;8.20;62.90;;;;;;1769313;81;21146;-76
2021/04/24 05:57:44;;;;;;;9.88;4.60;;;8.30;62.50;;;;;;1769235;81;21668;-76
2021/04/24 06:00:20;;;;;;;10.00;4.20;;;8.30;62.90;;;;;;1769518;81;21153;-76
2021/04/24 06:02:49;;;;;;;13.83;5.42;;;8.50;62.70;;;;;;1769691;80;21130;-76
2021/04/24 06:05:17;;;;;;;12.78;4.72;;;8.60;62.70;;;;;;1769420;80;21161;-76
2021/04/24 06:07:46;;;;;;;10.90;5.15;;;8.60;62.60;;;;;;1769228;80;21596;-77
2021/04/24 06:10:17;;;;;;;13.00;5.90;;;8.80;62.40;;;;;;1769235;80;21600;-77
2021/04/24 06:12:48;;;;;;;11.83;5.35;;;8.90;62.70;;;;;;1768652;80;21166;-76
2021/04/24 06:15:20;;;;;;;13.65;5.75;;;8.90;62.50;;;;;;1769320;81;21288;-77
2021/04/24 06:17:48;;;;;;;11.50;5.40;;;8.90;62.30;;;;;;1769274;81;21170;-77
2021/04/24 06:20:17;;;;;;;10.72;5.65;;;8.90;62.80;;;;;;1769708;81;21573;-77
2021/04/24 06:22:46;;;;;;;14.20;5.62;;;9.00;62.60;;;;;;1769214;81;21165;-76
2021/04/24 06:25:17;;;;;;;17.73;6.58;;;9.20;62.50;;;;;;1769054;80;21288;-76
2021/04/24 06:27:46;;;;;;;14.07;5.70;;;9.20;62.10;;;;;;1769252;80;21141;-76
2021/04/24 06:30:18;;;;;;;12.85;5.67;;;9.30;61.80;;;;;;1769287;81;21162;-76
2021/04/24 06:32:49;;;;;;;15.32;5.70;;;9.40;62.30;;;;;;1750997;81;21517;-76
2021/04/24 06:35:18;;;;;;;11.40;5.60;;;9.40;61.90;;;;;;1769386;81;21347;-75
2021/04/24 06:37:46;;;;;;;10.58;5.78;;;9.60;60.90;;;;;;1769785;80;21153;-77
2021/04/24 06:40:17;;;;;;;13.65;5.78;;;9.60;60.80;;;;;;1769408;80;21572;-77
2021/04/24 06:42:46;;;;;;;13.55;5.40;;;9.60;61.70;;;;;;1769293;81;21145;-77
2021/04/24 06:45:16;;;;;;;12.68;5.28;;;9.70;61.20;;;;;;1769175;80;21288;-76
2021/04/24 06:47:43;;;;;;;15.00;5.78;;;9.80;60.80;;;;;;1769266;81;21177;-76
2021/04/24 06:50:13;;;;;;;9.70;5.50;;;9.90;60.50;;;;;;1769255;80;21604;-76
2021/04/24 06:52:41;;;;;;;9.80;5.55;;;9.90;60.90;;;;;;1769468;81;21612;-76
2021/04/24 06:55:12;;;;;;;11.28;5.45;;;10.10;60.00;;;;;;1769213;80;21279;-76
2021/04/24 06:57:40;;;;;;;10.08;5.00;;;10.20;59.40;;;;;;1769467;81;21545;-77
2021/04/24 07:00:09;;;;;;;11.08;5.90;;;10.20;59.30;;;;;;1769217;81;21596;-78
2021/04/24 07:02:36;;;;;;;12.15;5.90;;;10.30;59.40;;;;;;1769194;80;21328;-76
2021/04/24 07:05:08;;;;;;;14.18;5.60;;;10.40;59.20;;;;;;1769576;81;21158;-76
2021/04/24 07:07:37;;;;;;;10.35;5.42;;;10.50;57.80;;;;;;1769692;81;21111;-76
2021/04/24 07:10:09;;;;;;;12.07;5.30;;;10.60;57.60;;;;;;1769360;80;21119;-76
2021/04/24 07:12:37;;;;;;;10.85;6.42;;;10.60;56.90;;;;;;1769714;80;21139;-76
2021/04/24 07:15:07;;;;;;;10.93;5.97;;;10.60;56.80;;;;;;1769161;81;21300;-77
2021/04/24 07:17:35;;;;;;;11.70;5.30;;;10.70;56.90;;;;;;1769189;81;21742;-76
2021/04/24 07:20:06;;;;;;;11.43;5.05;;;10.90;55.90;;;;;;1769197;80;21166;-75
2021/04/24 07:22:34;;;;;;;8.10;4.60;;;11.00;54.70;;;;;;1769440;81;21134;-75
2021/04/24 07:25:03;;;;;;;9.33;5.47;;;11.10;54.10;;;;;;1769158;81;21280;-76
2021/04/24 07:27:31;;;;;;;10.53;4.95;;;11.20;54.60;;;;;;1769143;81;21592;-76
2021/04/24 07:30:00;;;;;;;9.10;4.58;;;11.30;53.20;;;;;;1768934;81;21340;-76
2021/04/24 07:32:27;;;;;;;11.83;4.47;;;11.50;51.60;;;;;;1769109;81;21284;-76
2021/04/24 07:34:55;;;;;;;9.90;4.67;;;11.80;53.10;;;;;;1769151;81;21593;-76
2021/04/24 07:37:23;;;;;;;8.23;4.47;;;12.10;52.00;;;;;;1769330;81;21127;-77
2021/04/24 07:39:50;;;;;;;9.68;4.15;;;12.40;50.00;;;;;;1769159;81;21490;-76
2021/04/24 07:42:20;;;;;;;7.58;4.00;;;12.70;50.70;;;;;;1769121;81;21276;-76
2021/04/24 07:44:48;;;;;;;7.55;4.17;;;13.00;48.30;;;;;;1769310;81;21134;-76
2021/04/24 07:47:15;;;;;;;8.93;4.00;;;13.20;48.00;;;;;;1769220;81;21731;-76
2021/04/24 07:49:43;;;;;;;8.85;4.53;;;13.50;47.40;;;;;;1769219;80;21166;-76
2021/04/24 07:52:11;;;;;;;10.38;4.75;;;14.00;47.40;;;;;;1769204;81;21297;-76
2021/04/24 07:54:43;;;;;;;8.15;4.30;;;14.30;45.40;;;;;;1769353;80;21124;-76
2021/04/24 07:57:11;;;;;;;7.70;4.15;;;14.60;46.10;;;;;;1769061;81;21158;-76
2021/04/24 07:59:40;;;;;;;9.43;4.75;;;15.00;45.70;;;;;;1769127;80;21316;-75
2021/04/24 08:02:12;;;;;;;7.37;4.65;;;15.20;43.00;;;;;;1769337;81;21588;-76
2021/04/24 08:04:42;;;;;;;9.15;4.25;;;15.40;41.70;;;;;;1769303;81;21146;-76
2021/04/24 08:07:10;;;;;;;9.28;4.08;;;15.80;41.70;;;;;;1769614;81;21506;-76
2021/04/24 08:09:40;;;;;;;7.08;3.85;;;16.50;40.60;;;;;;1769501;81;21177;-76
2021/04/24 08:12:08;;;;;;;7.30;4.30;;;17.20;38.80;;;;;;1769291;81;21158;-75
2021/04/24 08:14:37;;;;;;;6.87;3.85;;;17.80;38.10;;;;;;1769301;81;21561;-75
2021/04/24 08:17:05;;;;;;;7.08;4.05;;;18.40;35.80;;;;;;1769881;81;21170;-76
2021/04/24 08:19:33;;;;;;;8.15;4.65;;;18.90;35.20;;;;;;1772102;81;21301;-75
2021/04/24 08:22:01;;;;;;;6.03;3.87;;;19.40;34.40;;;;;;1772671;81;21176;-75
2021/04/24 08:24:29;;;;;;;7.50;4.00;;;19.80;33.70;;;;;;1772130;81;21158;-75
2021/04/24 08:26:56;;;;;;;7.87;4.05;;;20.20;33.40;;;;;;1772217;81;21134;-75
2021/04/24 08:29:24;;;;;;;11.28;4.53;;;20.50;32.40;;;;;;1772224;81;21122;-75
2021/04/24 08:31:52;;;;;;;8.03;3.90;;;20.70;31.20;;;;;;1772155;81;21150;-75
2021/04/24 08:34:24;;;;;;;13.43;3.85;;;20.80;32.90;;;;;;1772572;81;21146;-75
2021/04/24 08:36:51;;;;;;;7.12;3.98;;;21.10;31.30;;;;;;1772018;81;21260;-77
2021/04/24 08:39:19;;;;;;;10.03;4.08;;;21.30;30.90;;;;;;1772279;81;21142;-76
2021/04/24 08:41:47;;;;;;;8.10;3.67;;;20.90;29.30;;;;;;1772200;81;21143;-76
2021/04/24 08:44:17;;;;;;;6.95;3.80;;;20.80;29.70;;;;;;1772264;81;21719;-76
2021/04/24 08:46:51;;;;;;;7.62;3.90;;;20.10;31.00;;;;;;1772188;81;21130;-76
2021/04/24 08:49:22;;;;;;;8.53;4.05;;;19.70;31.20;;;;;;1772423;81;21134;-76
2021/04/24 08:51:51;;;;;;;6.85;3.08;;;19.20;33.70;;;;;;1772565;81;21557;-76
2021/04/24 08:54:21;;;;;;;6.35;3.05;;;19.00;32.60;;;;;;1772089;81;21316;-76
2021/04/24 08:56:50;;;;;;;6.25;2.83;;;18.90;30.20;;;;;;1744824;81;21157;-76
2021/04/24 08:59:17;;;;;;;6.78;2.98;;;19.00;29.80;;;;;;1772175;81;21709;-76
2021/04/24 09:01:45;;;;;;;6.45;3.02;;;19.00;29.80;;;;;;1772075;81;21299;-76
2021/04/24 09:04:12;;;;;;;5.53;3.05;;;19.00;32.20;;;;;;1772280;81;21114;-76
2021/04/24 09:06:40;;;;;;;7.10;2.58;;;19.00;30.50;;;;;;1772072;81;21287;-76
2021/04/24 09:09:12;;;;;;;7.80;2.62;;;19.00;30.00;;;;;;1772298;81;21174;-76
2021/04/24 09:11:47;;;;;;;6.87;3.40;;;18.80;31.40;;;;;;1743760;81;21743;-77
2021/04/24 09:14:20;;;;;;;7.35;2.80;;;18.80;30.90;;;;;;1772286;81;21126;-77
2021/04/24 09:16:52;;;;;;;5.03;2.87;;;18.80;30.60;;;;;;1771916;81;21609;-76
2021/04/24 09:19:36;;;;;;;9.98;2.92;;;18.80;31.20;;;;;;1769510;81;21103;-77
2021/04/24 09:22:19;;;;;;;4.78;2.37;;;18.70;30.60;;;;;;1769407;81;21134;-76
2021/04/24 09:24:54;;;;;;;5.78;2.75;;;18.70;30.00;;;;;;1769291;81;21288;-77
2021/04/24 09:27:46;;;;;;;8.48;3.10;;;18.60;29.60;;;;;;1769403;81;21138;-76
2021/04/24 09:30:27;;;;;;;7.08;2.70;;;18.40;30.90;;;;;;1769210;80;21601;-76
2021/04/24 09:33:06;;;;;;;6.35;2.80;;;18.10;29.90;;;;;;1769663;81;21514;-76
2021/04/24 09:35:42;;;;;;;5.85;2.65;;;17.40;30.40;;;;;;1769711;80;21522;-76
2021/04/24 09:38:19;;;;;;;8.60;3.00;;;17.10;31.10;;;;;;1769213;81;21134;-76
2021/04/24 09:41:08;;;;;;;7.75;3.47;;;16.90;33.40;;;;;;1769184;81;21695;-76
2021/04/24 09:44:03;;;;;;;8.33;4.28;;;16.70;34.90;;;;;;1769152;80;21141;-76
2021/04/24 09:46:56;;;;;;;7.00;3.62;;;16.60;35.60;;;;;;1769072;81;21315;-76
2021/04/24 09:49:33;;;;;;;8.08;3.90;;;16.40;36.70;;;;;;1769093;81;21272;-76
2021/04/24 09:52:08;;;;;;;15.68;3.98;;;16.30;36.60;;;;;;1769250;81;21165;-77
2021/04/24 09:54:45;;;;;;;11.03;3.77;;;16.20;37.10;;;;;;1769132;80;21277;-76
2021/04/24 09:57:24;;;;;;;11.08;3.20;;;16.20;36.10;;;;;;1769278;81;21691;-76
2021/04/24 09:59:59;;;;;;;7.65;3.70;;;16.20;36.80;;;;;;1768829;80;21732;-76
2021/04/24 10:02:34;;;;;;;5.45;3.42;;;16.10;35.90;;;;;;1769189;81;21130;-76
2021/04/24 10:05:10;;;;;;;10.38;3.15;;;16.00;35.90;;;;;;1768675;81;21606;-76
2021/04/24 10:07:49;;;;;;;6.47;3.37;;;15.90;36.40;;;;;;1769120;81;21304;-75
2021/04/24 10:10:34;;;;;;;8.93;3.47;;;15.90;35.70;;;;;;1769060;80;21170;-75
2021/04/24 10:13:09;;;;;;;6.90;3.17;;;15.90;36.00;;;;;;1751107;81;21632;-75
2021/04/24 10:15:45;;;;;;;6.22;3.30;;;16.00;36.90;;;;;;1769355;81;21127;-75
2021/04/24 10:18:16;;;;;;;6.22;3.50;;;16.10;37.50;;;;;;1770951;80;21165;-75
2021/04/24 10:20:46;;;;;;;11.83;3.58;;;16.20;37.80;;;;;;1772313;81;21533;-76
2021/04/24 10:23:16;;;;;;;6.78;3.62;;;16.30;37.10;;;;;;1772324;81;21157;-75
2021/04/24 10:25:45;;;;;;;5.37;3.00;;;16.30;38.00;;;;;;1772703;81;21189;-76
2021/04/24 10:28:14;;;;;;;6.87;3.40;;;16.20;37.20;;;;;;1772281;81;21158;-75
2021/04/24 10:30:43;;;;;;;7.60;2.92;;;16.10;37.00;;;;;;1772279;81;21158;-75
2021/04/24 10:33:13;;;;;;;8.80;3.20;;;16.10;37.90;;;;;;1772416;81;21170;-75
2021/04/24 10:35:41;;;;;;;6.22;3.50;;;16.20;39.10;;;;;;1772802;81;21158;-75
2021/04/24 10:38:09;;;;;;;7.83;3.70;;;16.20;37.70;;;;;;1772592;81;21181;-75
2021/04/24 10:40:45;;;;;;;7.05;3.27;;;16.10;38.00;;;;;;1772454;81;21600;-75
2021/04/24 10:43:20;;;;;;;6.25;3.42;;;16.10;37.40;;;;;;1772262;81;21147;-75
2021/04/24 10:45:48;;;;;;;11.45;3.60;;;16.10;38.10;;;;;;1772313;81;21133;-75
2021/04/24 10:48:25;;;;;;;10.20;3.17;;;16.10;38.90;;;;;;1772663;81;21166;-75
2021/04/24 10:50:54;;;;;;;8.08;3.55;;;16.20;37.20;;;;;;1772150;81;21157;-74
2021/04/24 10:53:26;;;;;;;7.80;3.35;;;16.10;38.30;;;;;;1772215;81;21192;-75
2021/04/24 10:55:57;;;;;;;5.12;3.20;;;16.20;37.60;;;;;;1772006;81;21154;-75
2021/04/24 10:58:28;;;;;;;6.67;3.47;;;16.10;37.50;;;;;;1772207;81;21260;-75
2021/04/24 11:00:58;;;;;;;8.70;2.92;;;16.20;37.30;;;;;;1772378;81;21517;-75
2021/04/24 11:03:46;;;;;;;8.48;3.47;;;16.20;36.10;;;;;;1772363;81;21154;-76
2021/04/24 11:06:22;;;;;;;6.28;3.47;;;16.10;37.80;;;;;;1772188;81;21138;-76
2021/04/24 11:08:54;;;;;;;7.55;3.58;;;16.00;37.50;;;;;;1772519;81;21133;-75
2021/04/24 11:11:22;;;;;;;8.20;3.65;;;16.00;37.60;;;;;;1738155;81;21178;-76
2021/04/24 11:13:55;;;;;;;6.90;3.52;;;16.00;37.30;;;;;;1772169;81;21118;-75
2021/04/24 11:16:32;;;;;;;6.62;3.50;;;16.00;37.70;;;;;;1772445;81;21126;-75
2021/04/24 11:18:59;;;;;;;8.48;3.77;;;15.90;37.40;;;;;;1770345;81;21165;-75
2021/04/24 11:21:29;;;;;;;7.22;3.87;;;15.80;38.10;;;;;;1769250;81;21581;-75
2021/04/24 11:24:00;;;;;;;8.10;4.08;;;15.70;37.60;;;;;;1769274;81;21569;-75
2021/04/24 11:26:39;;;;;;;7.33;3.80;;;15.70;38.50;;;;;;1769290;80;21249;-75
2021/04/24 11:29:11;;;;;;;6.35;3.77;;;15.70;38.10;;;;;;1769363;80;21126;-75
2021/04/24 11:31:59;;;;;;;6.92;3.58;;;15.70;38.00;;;;;;1769624;80;21165;-75
2021/04/24 11:34:38;;;;;;;9.13;3.77;;;15.60;38.50;;;;;;1769521;81;21111;-75
2021/04/24 11:37:23;;;;;;;7.67;3.83;;;15.50;38.10;;;;;;1769379;81;21099;-75
2021/04/24 11:40:25;;;;;;;6.17;3.52;;;15.40;38.60;;;;;;1769367;80;21143;-76
2021/04/24 11:43:06;;;;;;;8.55;3.90;;;15.30;40.10;;;;;;1769323;80;21110;-76
2021/04/24 11:46:04;;;;;;;9.20;3.70;;;15.30;40.20;;;;;;1769176;81;21285;-76
2021/04/24 11:48:51;;;;;;;10.75;3.98;;;15.20;39.60;;;;;;1769341;81;21138;-76
2021/04/24 11:51:43;;;;;;;8.08;3.70;;;15.30;40.20;;;;;;1769397;81;21181;-76
2021/04/24 11:54:16;;;;;;;7.62;3.70;;;15.40;40.90;;;;;;1769358;81;21129;-75
2021/04/24 11:56:46;;;;;;;7.92;3.83;;;15.40;40.00;;;;;;1769075;81;21154;-76
2021/04/24 11:59:21;;;;;;;6.75;3.58;;;15.40;39.40;;;;;;1769351;81;21448;-76
2021/04/24 12:01:52;;;;;;;;;;;15.40;39.50;;;;;;1771958;80;21151;-77
2021/04/24 12:04:26;;;;;;;7.00;3.50;;;15.30;38.90;;;;;;1769117;81;20227;-75
2021/04/24 12:07:16;;;;;;;8.73;4.37;;;15.30;39.30;;;;;;1769160;80;21572;-76
2021/04/24 12:09:58;;;;;;;5.90;3.60;;;15.30;39.40;;;;;;1769322;81;21537;-76
2021/04/24 12:12:40;;;;;;;7.47;3.75;;;15.50;39.70;;;;;;1769306;81;21593;-76
2021/04/24 12:15:15;;;;;;;5.92;3.50;;;15.50;38.70;;;;;;1769210;81;21695;-76
2021/04/24 12:17:52;;;;;;;9.25;3.85;;;15.60;39.50;;;;;;1768383;81;21161;-76
2021/04/24 12:20:39;;;;;;;6.30;3.70;;;15.70;39.30;;;;;;1769814;81;21146;-76
2021/04/24 12:23:17;;;;;;;8.15;3.98;;;15.70;39.30;;;;;;1769193;80;21106;-76
2021/04/24 12:25:49;;;;;;;8.68;3.85;;;15.70;39.70;;;;;;1769245;81;21162;-76
2021/04/24 12:28:24;;;;;;;7.17;3.80;;;15.80;39.10;;;;;;1769703;81;21486;-76
2021/04/24 12:30:48;;;;;;;7.10;3.55;;;15.80;39.70;;;;;;1768217;81;21253;-76
2021/04/24 12:33:21;;;;;;;6.35;3.40;;;15.70;40.20;;;;;;1769296;81;21142;-77
2021/04/24 12:35:56;;;;;;;7.00;3.45;;;15.70;38.70;;;;;;1769208;81;21145;-77
2021/04/24 12:38:28;;;;;;;6.30;3.90;;;15.70;38.80;;;;;;1769133;81;21277;-76
2021/04/24 12:40:59;;;;;;;9.48;3.85;;;15.70;39.50;;;;;;1769212;81;21131;-76
2021/04/24 12:43:40;;;;;;;5.90;3.77;;;15.70;40.00;;;;;;1769323;81;21134;-76
2021/04/24 12:46:10;;;;;;;7.83;3.90;;;15.80;40.20;;;;;;1769513;81;21493;-76
2021/04/24 12:48:46;;;;;;;6.60;3.67;;;15.90;38.50;;;;;;1769498;81;21150;-75
2021/04/24 12:51:22;;;;;;;8.25;4.10;;;15.90;38.80;;;;;;1769236;81;21304;-76
2021/04/24 12:53:53;;;;;;;6.35;3.60;;;15.90;39.00;;;;;;1769395;81;21270;-76
2021/04/24 12:56:28;;;;;;;6.45;3.45;;;16.00;38.30;;;;;;1769389;81;21133;-75
2021/04/24 12:59:03;;;;;;;8.20;3.83;;;16.00;38.70;;;;;;1769121;81;21158;-76
2021/04/24 13:01:33;;;;;;;7.47;4.00;;;16.00;39.30;;;;;;1769130;81;21296;-76
2021/04/24 13:04:01;;;;;;;7.12;3.90;;;16.10;38.80;;;;;;1769105;81;21720;-75
2021/04/24 13:06:31;;;;;;;7.15;3.80;;;16.10;38.70;;;;;;1769285;80;21143;-76
2021/04/24 13:09:04;;;;;;;6.47;3.47;;;16.10;38.70;;;;;;1769126;81;21269;-76